createdAt,value
2023-02-23T00:00:28.469Z,9.71
2023-02-23T00:01:30.528Z,9.71
2023-02-23T00:02:32.288Z,9.71
2023-02-23T00:03:34.365Z,9.72
2023-02-23T00:04:36.528Z,9.72
2023-02-23T00:05:38.376Z,9.72
2023-02-23T00:06:40.226Z,9.73
2023-02-23T00:07:45.440Z,9.73
2023-02-23T00:08:49.992Z,9.70
2023-02-23T00:09:52.921Z,9.68
2023-02-23T00:10:58.639Z,9.65
2023-02-23T00:12:07.497Z,9.63
2023-02-23T00:13:11.114Z,9.61
2023-02-23T00:14:12.865Z,9.61
2023-02-23T00:15:15.646Z,9.61
2023-02-23T00:16:22.761Z,9.62
2023-02-23T00:17:24.613Z,9.63
2023-02-23T00:18:30.194Z,9.64
2023-02-23T00:19:33.601Z,9.64
2023-02-23T00:20:35.609Z,9.64
2023-02-23T00:21:37.810Z,9.64
2023-02-23T00:22:40.438Z,9.63
2023-02-23T00:23:43.536Z,9.63
2023-02-23T00:24:47.740Z,9.62
2023-02-23T00:25:49.605Z,9.62
2023-02-23T00:26:51.767Z,9.62
2023-02-23T00:27:54.901Z,9.61
2023-02-23T00:28:58.349Z,9.62
2023-02-23T00:30:00.183Z,9.64
2023-02-23T00:31:02.946Z,9.66
2023-02-23T00:32:05.039Z,9.68
2023-02-23T00:33:07.468Z,9.69
2023-02-23T00:34:10.669Z,9.71
2023-02-23T00:35:17.524Z,9.73
2023-02-23T00:36:21.652Z,9.73
2023-02-23T00:37:23.506Z,9.72
2023-02-23T00:38:25.649Z,9.72
2023-02-23T00:39:29.370Z,9.71
2023-02-23T00:40:31.291Z,9.70
2023-02-23T00:41:33.101Z,9.70
2023-02-23T00:42:35.867Z,9.69
2023-02-23T00:43:39.732Z,9.68
2023-02-23T00:44:42.312Z,9.68
2023-02-23T00:45:44.205Z,9.66
2023-02-23T00:46:51.799Z,9.66
2023-02-23T00:47:53.900Z,9.65
2023-02-23T00:48:58.510Z,9.64
2023-02-23T00:50:00.393Z,9.63
2023-02-23T00:51:04.830Z,9.63
2023-02-23T00:52:06.600Z,9.63
2023-02-23T00:53:11.240Z,9.63
2023-02-23T00:54:14.422Z,9.62
2023-02-23T00:55:16.310Z,9.60
2023-02-23T00:56:18.154Z,9.59
2023-02-23T00:57:20.132Z,9.58
2023-02-23T00:58:23.346Z,9.58
2023-02-23T00:59:25.225Z,9.59
2023-02-23T01:00:27.054Z,9.60
2023-02-23T01:01:29.344Z,9.61
2023-02-23T01:02:31.411Z,9.62
2023-02-23T01:03:33.545Z,9.62
2023-02-23T01:04:35.438Z,9.61
2023-02-23T01:05:37.267Z,9.61
2023-02-23T01:06:41.401Z,9.60
2023-02-23T01:07:46.497Z,9.59
2023-02-23T01:08:50.769Z,9.58
2023-02-23T01:09:52.562Z,9.57
2023-02-23T01:10:54.763Z,9.55
2023-02-23T01:11:57.276Z,9.53
2023-02-23T01:12:59.153Z,9.53
2023-02-23T01:14:01.927Z,9.53
2023-02-23T01:15:03.873Z,9.53
2023-02-23T01:16:07.701Z,9.52
2023-02-23T01:17:09.599Z,9.51
2023-02-23T01:18:11.934Z,9.51
2023-02-23T01:19:14.134Z,9.50
2023-02-23T01:20:20.185Z,9.49
2023-02-23T01:21:31.240Z,9.48
2023-02-23T01:22:33.014Z,9.47
2023-02-23T01:23:34.799Z,9.46
2023-02-23T01:24:38.621Z,9.44
2023-02-23T01:25:42.945Z,9.42
2023-02-23T01:26:45.638Z,9.40
2023-02-23T01:27:47.650Z,9.39
2023-02-23T01:28:50.555Z,9.39
2023-02-23T01:29:54.834Z,9.38
2023-02-23T01:30:56.951Z,9.37
2023-02-23T01:31:58.746Z,9.37
2023-02-23T01:33:02.567Z,9.36
2023-02-23T01:34:06.030Z,9.35
2023-02-23T01:35:10.299Z,9.34
2023-02-23T01:36:15.796Z,9.33
2023-02-23T01:37:17.608Z,9.32
2023-02-23T01:38:19.456Z,9.31
2023-02-23T01:39:21.425Z,9.31
2023-02-23T01:40:30.486Z,9.29
2023-02-23T01:41:33.154Z,9.28
2023-02-23T01:42:38.597Z,9.27
2023-02-23T01:44:05.139Z,9.27
2023-02-23T01:45:36.397Z,9.25
2023-02-23T01:46:41.187Z,9.24
2023-02-23T01:47:43.164Z,9.23
2023-02-23T01:48:45.249Z,9.22
2023-02-23T01:49:47.784Z,9.20
2023-02-23T01:51:08.404Z,9.19
2023-02-23T01:52:14.335Z,9.16
2023-02-23T01:53:17.341Z,9.14
2023-02-23T01:54:23.680Z,9.13
2023-02-23T01:55:26.960Z,9.12
2023-02-23T01:56:36.621Z,9.11
2023-02-23T01:57:40.346Z,9.10
2023-02-23T01:58:46.733Z,9.09
2023-02-23T01:59:49.950Z,9.08
2023-02-23T02:00:57.579Z,9.07
2023-02-23T02:01:59.333Z,9.07
2023-02-23T02:03:08.702Z,9.06
2023-02-23T02:04:16.529Z,9.06
2023-02-23T02:05:18.986Z,9.05
2023-02-23T02:06:23.394Z,9.06
2023-02-23T02:07:28.409Z,9.06
2023-02-23T02:08:31.745Z,9.05
2023-02-23T02:09:37.905Z,9.05
2023-02-23T02:10:39.833Z,9.05
2023-02-23T02:11:44.591Z,9.04
2023-02-23T02:12:54.108Z,9.04
2023-02-23T02:13:59.258Z,9.04
2023-02-23T02:15:04.979Z,9.03
2023-02-23T02:16:29.047Z,9.03
2023-02-23T02:17:48.623Z,9.03
2023-02-23T02:19:16.831Z,9.02
2023-02-23T02:20:33.387Z,9.02
2023-02-23T02:22:15.297Z,9.01
2023-02-23T02:23:36.973Z,9.02
2023-02-23T02:25:00.778Z,9.02
2023-02-23T02:26:15.868Z,9.02
2023-02-23T02:27:36.561Z,9.02
2023-02-23T02:28:59.741Z,9.02
2023-02-23T02:30:28.175Z,9.01
2023-02-23T02:31:52.396Z,9.00
2023-02-23T02:33:21.601Z,8.99
2023-02-23T02:34:23.313Z,8.99
2023-02-23T02:35:27.893Z,8.98
2023-02-23T02:36:51.306Z,8.98
2023-02-23T02:38:17.839Z,8.98
2023-02-23T02:39:44.867Z,8.96
2023-02-23T02:40:58.962Z,8.96
2023-02-23T02:42:26.966Z,8.95
2023-02-23T02:43:42.889Z,8.94
2023-02-23T02:44:44.675Z,8.93
2023-02-23T02:46:07.845Z,8.93
2023-02-23T02:47:17.682Z,8.92
2023-02-23T02:48:42.383Z,8.91
2023-02-23T02:49:50.458Z,8.90
2023-02-23T02:50:59.270Z,8.90
2023-02-23T02:52:06.852Z,8.89
2023-02-23T02:53:11.145Z,8.88
2023-02-23T02:54:25.183Z,8.87
2023-02-23T02:55:29.585Z,8.86
2023-02-23T02:56:33.504Z,8.84
2023-02-23T02:57:36.352Z,8.82
2023-02-23T02:58:39.100Z,8.81
2023-02-23T03:00:04.264Z,8.79
2023-02-23T03:01:32.348Z,8.78
2023-02-23T03:02:56.239Z,8.76
2023-02-23T03:04:18.618Z,8.75
2023-02-23T03:05:41.714Z,8.74
2023-02-23T03:07:27.985Z,8.73
2023-02-23T03:09:20.825Z,8.71
2023-02-23T03:11:01.522Z,8.69
2023-02-23T03:12:40.760Z,8.69
2023-02-23T03:14:06.909Z,8.68
2023-02-23T03:15:51.105Z,8.68
2023-02-23T03:17:22.249Z,8.68
2023-02-23T03:19:03.472Z,8.68
2023-02-23T03:20:46.232Z,8.68
2023-02-23T03:22:26.348Z,8.69
2023-02-23T03:23:59.021Z,8.69
2023-02-23T03:25:25.312Z,8.69
2023-02-23T03:26:53.882Z,8.68
2023-02-23T03:28:41.027Z,8.69
2023-02-23T03:30:44.078Z,8.69
2023-02-23T03:32:09.842Z,8.69
2023-02-23T03:33:36.563Z,8.70
2023-02-23T03:35:04.812Z,8.70
2023-02-23T03:36:30.936Z,8.69
2023-02-23T03:38:01.007Z,8.68
2023-02-23T03:39:40.757Z,8.66
2023-02-23T03:41:02.241Z,8.65
2023-02-23T03:42:28.259Z,8.65
2023-02-23T03:43:54.823Z,8.65
2023-02-23T03:45:16.912Z,8.68
2023-02-23T03:46:38.802Z,8.69
2023-02-23T03:48:00.922Z,8.68
2023-02-23T03:49:24.994Z,8.68
2023-02-23T03:50:53.812Z,8.68
2023-02-23T03:52:25.030Z,8.68
2023-02-23T03:53:55.081Z,8.68
2023-02-23T03:55:19.451Z,8.68
2023-02-23T03:56:44.838Z,8.69
2023-02-23T03:58:10.325Z,8.69
2023-02-23T03:59:32.951Z,8.70
2023-02-23T04:00:58.437Z,8.71
2023-02-23T04:02:20.152Z,8.72
2023-02-23T04:03:40.645Z,8.73
2023-02-23T04:05:03.683Z,8.74
2023-02-23T04:06:27.294Z,8.74
2023-02-23T04:07:48.100Z,8.75
2023-02-23T04:09:09.631Z,8.75
2023-02-23T04:10:31.200Z,8.74
2023-02-23T04:12:09.692Z,8.77
2023-02-23T04:13:19.283Z,8.77
2023-02-23T04:14:31.045Z,8.78
2023-02-23T04:15:39.351Z,8.78
2023-02-23T04:16:42.028Z,8.79
2023-02-23T04:17:44.693Z,8.79
2023-02-23T04:18:46.740Z,8.79
2023-02-23T04:19:52.682Z,8.79
2023-02-23T04:20:56.110Z,8.78
2023-02-23T04:21:58.024Z,8.78
2023-02-23T04:22:59.838Z,8.78
2023-02-23T04:24:01.660Z,8.78
2023-02-23T04:25:03.800Z,8.78
2023-02-23T04:26:05.758Z,8.78
2023-02-23T04:27:07.630Z,8.77
2023-02-23T04:28:09.800Z,8.77
2023-02-23T04:29:12.620Z,8.76
2023-02-23T04:30:14.489Z,8.76
2023-02-23T04:31:18.765Z,8.76
2023-02-23T04:32:21.140Z,8.75
2023-02-23T04:33:25.008Z,8.75
2023-02-23T04:34:26.793Z,8.76
2023-02-23T04:35:30.006Z,8.76
2023-02-23T04:36:31.833Z,8.76
2023-02-23T04:37:33.739Z,8.76
2023-02-23T04:38:35.837Z,8.76
2023-02-23T04:39:37.684Z,8.76
2023-02-23T04:40:39.662Z,8.75
2023-02-23T04:41:41.476Z,8.74
2023-02-23T04:42:43.362Z,8.73
2023-02-23T04:43:45.193Z,8.73
2023-02-23T04:44:47.264Z,8.72
2023-02-23T04:45:49.407Z,8.72
2023-02-23T04:46:51.244Z,8.72
2023-02-23T04:47:53.761Z,8.71
2023-02-23T04:48:55.948Z,8.71
2023-02-23T04:49:57.879Z,8.70
2023-02-23T04:50:59.893Z,8.68
2023-02-23T04:52:01.974Z,8.67
2023-02-23T04:53:03.797Z,8.66
2023-02-23T04:54:05.693Z,8.65
2023-02-23T04:55:08.949Z,8.64
2023-02-23T04:56:12.044Z,8.64
2023-02-23T04:57:14.289Z,8.63
2023-02-23T04:58:16.270Z,8.63
2023-02-23T04:59:18.507Z,8.62
2023-02-23T05:00:20.543Z,8.61
2023-02-23T05:01:22.608Z,8.60
2023-02-23T05:02:25.106Z,8.59
2023-02-23T05:03:27.264Z,8.58
2023-02-23T05:04:29.279Z,8.55
2023-02-23T05:05:31.563Z,8.55
2023-02-23T05:06:33.475Z,8.54
2023-02-23T05:07:36.666Z,8.54
2023-02-23T05:08:38.787Z,8.54
2023-02-23T05:09:41.335Z,8.54
2023-02-23T05:10:43.716Z,8.53
2023-02-23T05:11:46.293Z,8.53
2023-02-23T05:12:48.054Z,8.52
2023-02-23T05:13:49.892Z,8.51
2023-02-23T05:14:51.631Z,8.49
2023-02-23T05:15:57.804Z,8.48
2023-02-23T05:16:59.689Z,8.46
2023-02-23T05:18:01.501Z,8.45
2023-02-23T05:19:09.364Z,8.45
2023-02-23T05:20:12.588Z,8.45
2023-02-23T05:21:14.499Z,8.45
2023-02-23T05:22:16.297Z,8.45
2023-02-23T05:23:18.720Z,8.45
2023-02-23T05:24:20.917Z,8.44
2023-02-23T05:25:22.766Z,8.45
2023-02-23T05:26:24.759Z,8.46
2023-02-23T05:27:26.540Z,8.46
2023-02-23T05:28:28.797Z,8.46
2023-02-23T05:29:30.711Z,8.46
2023-02-23T05:30:33.208Z,8.46
2023-02-23T05:31:35.248Z,8.46
2023-02-23T05:32:37.186Z,8.46
2023-02-23T05:33:45.831Z,8.46
2023-02-23T05:34:47.688Z,8.46
2023-02-23T05:35:49.539Z,8.46
2023-02-23T05:36:51.836Z,8.46
2023-02-23T05:37:53.767Z,8.46
2023-02-23T05:38:56.102Z,8.47
2023-02-23T05:39:57.872Z,8.47
2023-02-23T05:41:00.014Z,8.47
2023-02-23T05:42:01.907Z,8.47
2023-02-23T05:43:03.717Z,8.47
2023-02-23T05:44:05.596Z,8.48
2023-02-23T05:45:07.867Z,8.49
2023-02-23T05:46:11.847Z,8.49
2023-02-23T05:47:13.679Z,8.50
2023-02-23T05:48:15.742Z,8.51
2023-02-23T05:49:17.658Z,8.51
2023-02-23T05:50:19.505Z,8.53
2023-02-23T05:51:21.670Z,8.54
2023-02-23T05:52:24.644Z,8.54
2023-02-23T05:53:26.499Z,8.55
2023-02-23T05:54:28.476Z,8.56
2023-02-23T05:55:31.771Z,8.56
2023-02-23T05:56:33.979Z,8.56
2023-02-23T05:57:36.304Z,8.56
2023-02-23T05:58:38.128Z,8.55
2023-02-23T05:59:40.300Z,8.54
2023-02-23T06:00:42.417Z,8.55
2023-02-23T06:01:44.488Z,8.55
2023-02-23T06:02:46.443Z,8.55
2023-02-23T06:03:48.921Z,8.55
2023-02-23T06:04:51.128Z,8.54
2023-02-23T06:05:55.311Z,8.54
2023-02-23T06:06:57.272Z,8.55
2023-02-23T06:07:59.223Z,8.57
2023-02-23T06:09:03.495Z,8.58
2023-02-23T06:10:06.548Z,8.59
2023-02-23T06:11:09.960Z,8.60
2023-02-23T06:12:11.901Z,8.60
2023-02-23T06:13:14.522Z,8.61
2023-02-23T06:14:16.468Z,8.61
2023-02-23T06:15:18.729Z,8.62
2023-02-23T06:16:21.129Z,8.62
2023-02-23T06:17:23.560Z,8.63
2023-02-23T06:18:26.614Z,8.64
2023-02-23T06:19:28.414Z,8.64
2023-02-23T06:20:30.284Z,8.65
2023-02-23T06:21:32.071Z,8.66
2023-02-23T06:22:34.343Z,8.66
2023-02-23T06:23:36.250Z,8.67
2023-02-23T06:24:38.016Z,8.68
2023-02-23T06:25:40.888Z,8.68
2023-02-23T06:26:44.422Z,8.69
2023-02-23T06:27:46.546Z,8.70
2023-02-23T06:28:48.636Z,8.71
2023-02-23T06:29:50.434Z,8.72
2023-02-23T06:30:53.805Z,8.73
2023-02-23T06:31:56.555Z,8.73
2023-02-23T06:32:59.332Z,8.74
2023-02-23T06:34:01.161Z,8.74
2023-02-23T06:35:03.665Z,8.75
2023-02-23T06:36:05.727Z,8.75
2023-02-23T06:37:09.245Z,8.76
2023-02-23T06:38:11.284Z,8.76
2023-02-23T06:39:13.312Z,8.77
2023-02-23T06:40:15.205Z,8.78
2023-02-23T06:41:20.677Z,8.78
2023-02-23T06:42:22.621Z,8.78
2023-02-23T06:43:24.450Z,8.78
2023-02-23T06:44:26.353Z,8.78
2023-02-23T06:45:28.327Z,8.79
2023-02-23T06:46:30.236Z,8.79
2023-02-23T06:47:32.113Z,8.79
2023-02-23T06:48:35.520Z,8.79
2023-02-23T06:49:37.550Z,8.79
2023-02-23T06:50:39.294Z,8.79
2023-02-23T06:51:41.120Z,8.78
2023-02-23T06:52:42.978Z,8.78
2023-02-23T06:53:44.941Z,8.79
2023-02-23T06:54:48.284Z,8.81
2023-02-23T06:55:50.035Z,8.81
2023-02-23T06:56:53.272Z,8.81
2023-02-23T06:57:55.090Z,8.81
2023-02-23T06:58:56.907Z,8.82
2023-02-23T06:59:59.244Z,8.82
2023-02-23T07:01:01.284Z,8.83
2023-02-23T07:02:05.774Z,8.84
2023-02-23T07:03:07.964Z,8.85
2023-02-23T07:04:11.282Z,8.85
2023-02-23T07:05:13.414Z,8.88
2023-02-23T07:06:15.329Z,8.91
2023-02-23T07:07:17.169Z,8.92
2023-02-23T07:08:19.301Z,8.93
2023-02-23T07:09:21.072Z,8.94
2023-02-23T07:10:23.050Z,8.95
2023-02-23T07:11:24.822Z,8.96
2023-02-23T07:12:26.687Z,8.96
2023-02-23T07:13:28.468Z,8.96
2023-02-23T07:14:30.340Z,8.95
2023-02-23T07:15:32.153Z,8.96
2023-02-23T07:16:34.140Z,8.96
2023-02-23T07:17:36.604Z,8.96
2023-02-23T07:18:38.455Z,8.96
2023-02-23T07:19:40.853Z,8.96
2023-02-23T07:20:43.038Z,8.95
2023-02-23T07:21:45.386Z,8.95
2023-02-23T07:22:47.230Z,8.94
2023-02-23T07:23:49.933Z,8.94
2023-02-23T07:24:51.975Z,8.94
2023-02-23T07:25:55.212Z,8.94
2023-02-23T07:26:57.083Z,8.94
2023-02-23T07:28:01.717Z,8.94
2023-02-23T07:29:03.732Z,8.94
2023-02-23T07:30:06.431Z,8.94
2023-02-23T07:31:08.418Z,8.95
2023-02-23T07:32:10.653Z,8.95
2023-02-23T07:33:12.857Z,8.96
2023-02-23T07:34:14.653Z,8.97
2023-02-23T07:35:16.738Z,8.97
2023-02-23T07:36:18.543Z,8.98
2023-02-23T07:37:21.536Z,8.98
2023-02-23T07:38:23.531Z,8.97
2023-02-23T07:39:25.704Z,8.97
2023-02-23T07:40:27.537Z,8.97
2023-02-23T07:41:29.454Z,8.97
2023-02-23T07:42:31.272Z,8.98
2023-02-23T07:43:33.300Z,9.00
2023-02-23T07:44:35.241Z,9.01
2023-02-23T07:45:37.465Z,9.01
2023-02-23T07:46:39.297Z,9.01
2023-02-23T07:47:41.178Z,9.01
2023-02-23T07:48:44.999Z,9.03
2023-02-23T07:49:47.082Z,9.04
2023-02-23T07:50:48.981Z,9.05
2023-02-23T07:51:50.829Z,9.07
2023-02-23T07:52:52.850Z,9.08
2023-02-23T07:53:55.234Z,9.10
2023-02-23T07:54:57.796Z,9.14
2023-02-23T07:56:00.861Z,9.16
2023-02-23T07:57:03.075Z,9.18
2023-02-23T07:58:06.177Z,9.22
2023-02-23T07:59:08.085Z,9.26
2023-02-23T08:00:11.701Z,9.29
2023-02-23T08:01:14.462Z,9.32
2023-02-23T08:02:16.700Z,9.35
2023-02-23T08:03:18.820Z,9.37
2023-02-23T08:04:20.767Z,9.39
2023-02-23T08:05:24.367Z,9.42
2023-02-23T08:06:27.347Z,9.46
2023-02-23T08:07:29.175Z,9.47
2023-02-23T08:08:31.170Z,9.49
2023-02-23T08:09:35.072Z,9.50
2023-02-23T08:10:38.282Z,9.52
2023-02-23T08:11:40.514Z,9.53
2023-02-23T08:12:42.415Z,9.55
2023-02-23T08:13:44.282Z,9.58
2023-02-23T08:14:46.261Z,9.59
2023-02-23T08:15:48.106Z,9.60
2023-02-23T08:16:51.639Z,9.61
2023-02-23T08:17:53.636Z,9.62
2023-02-23T08:19:00.095Z,9.63
2023-02-23T08:20:08.868Z,9.64
2023-02-23T08:21:10.998Z,9.63
2023-02-23T08:22:12.903Z,9.64
2023-02-23T08:23:16.986Z,9.65
2023-02-23T08:24:19.000Z,9.66
2023-02-23T08:25:21.278Z,9.68
2023-02-23T08:26:25.055Z,9.72
2023-02-23T08:27:26.876Z,9.74
2023-02-23T08:28:29.766Z,9.75
2023-02-23T08:29:32.041Z,9.78
2023-02-23T08:30:34.524Z,9.79
2023-02-23T08:31:36.868Z,9.79
2023-02-23T08:32:40.494Z,9.79
2023-02-23T08:33:42.481Z,9.79
2023-02-23T08:34:44.719Z,9.80
2023-02-23T08:35:46.535Z,9.82
2023-02-23T08:36:49.045Z,9.82
2023-02-23T08:37:51.494Z,9.83
2023-02-23T08:38:54.343Z,9.84
2023-02-23T08:39:57.113Z,9.85
2023-02-23T08:41:02.649Z,9.86
2023-02-23T08:42:05.139Z,9.88
2023-02-23T08:43:06.949Z,9.90
2023-02-23T08:44:08.911Z,9.91
2023-02-23T08:45:11.384Z,9.93
2023-02-23T08:46:13.482Z,9.94
2023-02-23T08:47:16.769Z,9.97
2023-02-23T08:48:19.358Z,9.99
2023-02-23T08:49:22.479Z,10.02
2023-02-23T08:50:27.022Z,10.04
2023-02-23T08:51:29.148Z,10.05
2023-02-23T08:52:31.493Z,10.11
2023-02-23T08:53:33.880Z,10.22
2023-02-23T08:54:35.721Z,10.28
2023-02-23T08:55:40.324Z,10.32
2023-02-23T08:56:42.459Z,10.36
2023-02-23T08:57:44.521Z,10.39
2023-02-23T08:58:46.490Z,10.42
2023-02-23T08:59:48.522Z,10.43
2023-02-23T09:00:50.551Z,10.44
2023-02-23T09:01:52.829Z,10.45
2023-02-23T09:02:54.806Z,10.46
2023-02-23T09:03:57.548Z,10.46
2023-02-23T09:04:59.615Z,10.46
2023-02-23T09:06:08.373Z,10.46
2023-02-23T09:07:15.232Z,10.46
2023-02-23T09:08:18.247Z,10.46
2023-02-23T09:09:20.023Z,10.48
2023-02-23T09:10:24.938Z,10.48
2023-02-23T09:11:26.911Z,10.47
2023-02-23T09:12:29.194Z,10.48
2023-02-23T09:13:31.234Z,10.48
2023-02-23T09:14:33.017Z,10.46
2023-02-23T09:15:34.865Z,10.46
2023-02-23T09:16:36.995Z,10.46
2023-02-23T09:17:39.179Z,10.45
2023-02-23T09:18:41.821Z,10.45
2023-02-23T09:19:43.835Z,10.44
2023-02-23T09:20:45.807Z,10.45
2023-02-23T09:21:47.689Z,10.44
2023-02-23T09:22:49.484Z,10.42
2023-02-23T09:23:52.919Z,10.41
2023-02-23T09:24:54.765Z,10.40
2023-02-23T09:25:56.622Z,10.39
2023-02-23T09:26:58.525Z,10.39
2023-02-23T09:28:03.833Z,10.39
2023-02-23T09:29:06.975Z,10.40
2023-02-23T09:30:09.764Z,10.41
2023-02-23T09:31:17.144Z,10.42
2023-02-23T09:32:19.363Z,10.44
2023-02-23T09:33:21.380Z,10.46
2023-02-23T09:34:23.263Z,10.47
2023-02-23T09:35:25.502Z,10.48
2023-02-23T09:36:27.849Z,10.50
2023-02-23T09:37:31.881Z,10.54
2023-02-23T09:38:36.552Z,10.58
2023-02-23T09:39:39.734Z,10.62
2023-02-23T09:40:53.881Z,10.68
2023-02-23T09:42:10.676Z,10.72
2023-02-23T09:43:26.641Z,10.75
2023-02-23T09:44:48.643Z,10.81
2023-02-23T09:46:24.353Z,10.91
2023-02-23T09:47:36.367Z,11.08
2023-02-23T09:48:38.495Z,11.16
2023-02-23T09:49:42.906Z,11.21
2023-02-23T09:50:51.797Z,11.30
2023-02-23T09:51:59.771Z,11.33
2023-02-23T09:53:22.004Z,11.36
2023-02-23T09:54:27.225Z,11.41
2023-02-23T09:55:30.338Z,11.46
2023-02-23T09:56:46.763Z,11.51
2023-02-23T09:57:52.004Z,11.61
2023-02-23T09:58:54.443Z,11.65
2023-02-23T09:59:56.710Z,11.66
2023-02-23T10:01:24.660Z,11.68
2023-02-23T10:02:31.032Z,11.70
2023-02-23T10:03:40.432Z,11.71
2023-02-23T10:05:01.080Z,11.72
2023-02-23T10:06:08.178Z,11.75
2023-02-23T10:07:36.611Z,11.76
2023-02-23T10:08:51.519Z,11.77
2023-02-23T10:10:18.063Z,11.79
2023-02-23T10:11:41.925Z,11.82
2023-02-23T10:13:09.607Z,11.83
2023-02-23T10:14:36.726Z,11.85
2023-02-23T10:16:18.653Z,11.88
2023-02-23T10:17:23.387Z,11.90
2023-02-23T10:19:01.984Z,11.92
2023-02-23T10:20:32.621Z,11.95
2023-02-23T10:21:42.915Z,11.99
2023-02-23T10:22:50.104Z,12.01
2023-02-23T10:23:56.005Z,12.02
2023-02-23T10:25:06.739Z,12.04
2023-02-23T10:26:19.211Z,12.06
2023-02-23T10:27:24.965Z,12.06
2023-02-23T10:28:35.056Z,12.07
2023-02-23T10:29:53.209Z,12.08
2023-02-23T10:30:56.129Z,12.10
2023-02-23T10:32:06.587Z,12.13
2023-02-23T10:33:35.970Z,12.13
2023-02-23T10:34:39.759Z,12.17
2023-02-23T10:35:41.852Z,12.20
2023-02-23T10:37:05.406Z,12.22
2023-02-23T10:38:15.376Z,12.26
2023-02-23T10:39:17.700Z,12.30
2023-02-23T10:40:27.761Z,12.32
2023-02-23T10:41:30.244Z,12.35
2023-02-23T10:42:32.381Z,12.41
2023-02-23T10:43:34.305Z,12.47
2023-02-23T10:44:36.076Z,12.50
2023-02-23T10:45:44.605Z,12.52
2023-02-23T10:46:52.819Z,12.53
2023-02-23T10:48:06.715Z,12.55
2023-02-23T10:49:18.915Z,12.56
2023-02-23T10:50:27.507Z,12.57
2023-02-23T10:51:34.832Z,12.56
2023-02-23T10:52:51.622Z,12.55
2023-02-23T10:53:53.620Z,12.53
2023-02-23T10:54:55.603Z,12.54
2023-02-23T10:56:13.846Z,12.55
2023-02-23T10:57:29.149Z,12.59
2023-02-23T10:58:49.964Z,12.62
2023-02-23T11:00:03.261Z,12.66
2023-02-23T11:01:10.714Z,12.69
2023-02-23T11:02:26.398Z,12.72
2023-02-23T11:03:31.124Z,12.74
2023-02-23T11:04:35.228Z,12.76
2023-02-23T11:05:51.347Z,12.77
2023-02-23T11:07:10.057Z,12.79
2023-02-23T11:08:25.412Z,12.81
2023-02-23T11:09:45.664Z,12.83
2023-02-23T11:11:02.572Z,12.85
2023-02-23T11:12:16.864Z,12.89
2023-02-23T11:13:23.323Z,12.92
2023-02-23T11:14:29.032Z,12.95
2023-02-23T11:15:49.075Z,12.98
2023-02-23T11:16:52.012Z,12.99
2023-02-23T11:17:59.573Z,13.01
2023-02-23T11:19:03.573Z,13.03
2023-02-23T11:20:25.036Z,13.04
2023-02-23T11:21:41.093Z,13.05
2023-02-23T11:22:43.420Z,13.07
2023-02-23T11:23:45.360Z,13.08
2023-02-23T11:24:47.490Z,13.10
2023-02-23T11:25:51.912Z,13.13
2023-02-23T11:27:03.853Z,13.15
2023-02-23T11:28:05.808Z,13.15
2023-02-23T11:29:19.682Z,13.15
2023-02-23T11:30:27.901Z,13.16
2023-02-23T11:31:35.091Z,13.18
2023-02-23T11:32:39.008Z,13.21
2023-02-23T11:33:43.704Z,13.21
2023-02-23T11:35:34.349Z,13.21
2023-02-23T11:36:37.378Z,13.24
2023-02-23T11:37:41.778Z,13.32
2023-02-23T11:38:46.822Z,13.35
2023-02-23T11:39:52.690Z,13.36
2023-02-23T11:40:59.902Z,13.37
2023-02-23T11:42:19.338Z,13.40
2023-02-23T11:43:21.781Z,13.44
2023-02-23T11:44:28.183Z,13.46
2023-02-23T11:45:33.696Z,13.47
2023-02-23T11:46:38.280Z,13.46
2023-02-23T11:47:42.262Z,13.45
2023-02-23T11:49:08.551Z,13.47
2023-02-23T11:50:24.025Z,13.48
2023-02-23T11:51:33.040Z,13.46
2023-02-23T11:52:36.666Z,13.45
2023-02-23T11:53:45.479Z,13.45
2023-02-23T11:54:54.911Z,13.45
2023-02-23T11:56:02.693Z,13.44
2023-02-23T11:57:06.325Z,13.44
2023-02-23T11:58:10.889Z,13.44
2023-02-23T11:59:18.822Z,13.44
2023-02-23T12:00:27.878Z,13.44
2023-02-23T12:01:46.510Z,13.46
2023-02-23T12:03:00.754Z,13.46
2023-02-23T12:04:03.162Z,13.46
2023-02-23T12:05:24.538Z,13.46
2023-02-23T12:06:30.927Z,13.47
2023-02-23T12:07:42.077Z,13.47
2023-02-23T12:08:48.033Z,13.47
2023-02-23T12:09:59.718Z,13.47
2023-02-23T12:11:06.345Z,13.48
2023-02-23T12:12:16.788Z,13.49
2023-02-23T12:13:36.822Z,13.49
2023-02-23T12:14:52.130Z,13.51
2023-02-23T12:16:12.230Z,13.52
2023-02-23T12:17:26.959Z,13.54
2023-02-23T12:19:08.532Z,13.57
2023-02-23T12:20:19.190Z,13.59
2023-02-23T12:21:23.741Z,13.62
2023-02-23T12:22:35.475Z,13.66
2023-02-23T12:23:41.328Z,13.68
2023-02-23T12:24:50.692Z,13.69
2023-02-23T12:26:05.560Z,13.70
2023-02-23T12:27:12.977Z,13.74
2023-02-23T12:28:27.232Z,13.76
2023-02-23T12:29:56.855Z,13.78
2023-02-23T12:31:03.130Z,13.81
2023-02-23T12:32:27.259Z,13.84
2023-02-23T12:33:36.813Z,13.89
2023-02-23T12:35:00.472Z,13.92
2023-02-23T12:36:12.643Z,13.93
2023-02-23T12:37:29.353Z,13.94
2023-02-23T12:38:46.420Z,13.95
2023-02-23T12:39:53.535Z,13.95
2023-02-23T12:41:02.341Z,13.94
2023-02-23T12:42:23.404Z,13.94
2023-02-23T12:43:32.343Z,13.96
2023-02-23T12:44:43.053Z,13.97
2023-02-23T12:45:55.713Z,13.96
2023-02-23T12:47:04.838Z,13.96
2023-02-23T12:48:15.318Z,13.96
2023-02-23T12:49:34.121Z,13.96
2023-02-23T12:50:43.351Z,13.98
2023-02-23T12:51:57.208Z,14.00
2023-02-23T12:53:18.144Z,14.02
2023-02-23T12:54:20.068Z,14.04
2023-02-23T12:55:31.649Z,14.05
2023-02-23T12:56:50.955Z,14.05
2023-02-23T12:58:03.723Z,14.05
2023-02-23T12:59:41.917Z,14.05
2023-02-23T13:00:51.102Z,14.07
2023-02-23T13:02:00.933Z,14.09
2023-02-23T13:03:33.517Z,14.10
2023-02-23T13:04:47.270Z,14.05
2023-02-23T13:06:13.429Z,14.10
2023-02-23T13:07:50.383Z,14.16
2023-02-23T13:09:06.022Z,14.20
2023-02-23T13:10:26.026Z,14.24
2023-02-23T13:11:33.910Z,14.26
2023-02-23T13:12:46.310Z,14.27
2023-02-23T13:14:02.492Z,14.28
2023-02-23T13:15:28.568Z,14.31
2023-02-23T13:16:51.719Z,14.35
2023-02-23T13:18:11.200Z,14.39
2023-02-23T13:19:20.911Z,14.46
2023-02-23T13:20:27.748Z,14.51
2023-02-23T13:21:59.097Z,14.52
2023-02-23T13:23:04.027Z,14.55
2023-02-23T13:24:16.486Z,14.58
2023-02-23T13:25:38.579Z,14.59
2023-02-23T13:27:00.353Z,14.60
2023-02-23T13:28:03.499Z,14.60
2023-02-23T13:29:25.239Z,14.60
2023-02-23T13:30:32.435Z,14.59
2023-02-23T13:31:37.216Z,14.56
2023-02-23T13:32:39.385Z,14.55
2023-02-23T13:33:44.290Z,14.55
2023-02-23T13:34:53.730Z,14.53
2023-02-23T13:35:56.433Z,14.52
2023-02-23T13:37:01.257Z,14.51
2023-02-23T13:38:27.864Z,14.49
2023-02-23T13:39:36.095Z,14.45
2023-02-23T13:40:47.237Z,14.43
2023-02-23T13:42:08.105Z,14.42
2023-02-23T13:43:29.814Z,14.40
2023-02-23T13:44:44.193Z,14.39
2023-02-23T13:46:21.671Z,14.39
2023-02-23T13:47:45.646Z,14.40
2023-02-23T13:49:11.775Z,14.40
2023-02-23T13:50:25.317Z,14.40
2023-02-23T13:51:40.018Z,14.40
2023-02-23T13:52:44.372Z,14.42
2023-02-23T13:53:55.909Z,14.42
2023-02-23T13:55:03.689Z,14.42
2023-02-23T13:56:11.482Z,14.43
2023-02-23T13:57:17.670Z,14.43
2023-02-23T13:58:27.500Z,14.43
2023-02-23T13:59:36.685Z,14.42
2023-02-23T14:00:38.574Z,14.42
2023-02-23T14:01:44.891Z,14.42
2023-02-23T14:02:47.409Z,14.43
2023-02-23T14:04:04.929Z,14.43
2023-02-23T14:05:29.098Z,14.43
2023-02-23T14:06:33.648Z,14.43
2023-02-23T14:07:41.694Z,14.43
2023-02-23T14:08:52.366Z,14.43
2023-02-23T14:09:57.138Z,14.44
2023-02-23T14:10:58.967Z,14.44
2023-02-23T14:12:19.389Z,14.43
2023-02-23T14:13:21.171Z,14.43
2023-02-23T14:14:32.322Z,14.42
2023-02-23T14:15:39.745Z,14.42
2023-02-23T14:16:41.981Z,14.41
2023-02-23T14:17:58.466Z,14.40
2023-02-23T14:19:11.415Z,14.40
2023-02-23T14:20:29.662Z,14.40
2023-02-23T14:21:37.477Z,14.40
2023-02-23T14:23:11.825Z,14.38
2023-02-23T14:24:17.780Z,14.37
2023-02-23T14:25:34.664Z,14.37
2023-02-23T14:26:39.715Z,14.37
2023-02-23T14:27:45.431Z,14.37
2023-02-23T14:29:19.137Z,14.37
2023-02-23T14:30:22.324Z,14.37
2023-02-23T14:31:25.842Z,14.37
2023-02-23T14:32:29.937Z,14.36
2023-02-23T14:33:34.828Z,14.35
2023-02-23T14:34:47.471Z,14.34
2023-02-23T14:35:49.725Z,14.33
2023-02-23T14:36:56.489Z,14.32
2023-02-23T14:38:35.949Z,14.31
2023-02-23T14:39:44.439Z,14.30
2023-02-23T14:40:49.263Z,14.29
2023-02-23T14:41:56.595Z,14.29
2023-02-23T14:43:01.910Z,14.29
2023-02-23T14:44:12.278Z,14.30
2023-02-23T14:45:27.324Z,14.31
2023-02-23T14:46:29.497Z,14.33
2023-02-23T14:47:41.872Z,14.34
2023-02-23T14:48:59.155Z,14.34
2023-02-23T14:50:01.625Z,14.35
2023-02-23T14:51:20.380Z,14.36
2023-02-23T14:52:27.304Z,14.36
2023-02-23T14:53:31.572Z,14.36
2023-02-23T14:54:38.522Z,14.36
2023-02-23T14:55:43.438Z,14.37
2023-02-23T14:56:47.176Z,14.38
2023-02-23T14:57:49.801Z,14.37
2023-02-23T14:58:53.902Z,14.36